sensor_id;sensor_type;location;lat;lon;timestamp;pressure;altitude;pressure_sealevel;temperature;humidity
19884;BME280;10104;50.732;10.174;2024-01-30T00:02:31;99284.91;;;0.72;100.00
19884;BME280;10104;50.732;10.174;2024-01-30T00:05:12;99284.06;;;0.71;100.00
19884;BME280;10104;50.732;10.174;2024-01-30T00:07:52;99285.38;;;0.78;100.00
19884;BME280;10104;50.732;10.174;2024-01-30T00:10:32;99286.47;;;0.74;100.00
19884;BME280;10104;50.732;10.174;2024-01-30T00:13:13;99283.63;;;0.79;100.00
19884;BME280;10104;50.732;10.174;2024-01-30T00:15:54;99287.31;;;0.75;100.00
19884;BME280;10104;50.732;10.174;2024-01-30T00:18:35;99282.59;;;0.67;100.00
19884;BME280;10104;50.732;10.174;2024-01-30T00:21:16;99276.53;;;0.81;100.00
19884;BME280;10104;50.732;10.174;2024-01-30T00:23:56;99275.88;;;0.77;100.00
19884;BME280;10104;50.732;10.174;2024-01-30T00:26:36;99274.28;;;0.75;100.00
19884;BME280;10104;50.732;10.174;2024-01-30T00:29:17;99275.97;;;0.76;100.00
19884;BME280;10104;50.732;10.174;2024-01-30T00:32:00;99276.63;;;0.79;100.00
19884;BME280;10104;50.732;10.174;2024-01-30T00:34:41;99274.88;;;0.80;100.00
19884;BME280;10104;50.732;10.174;2024-01-30T00:37:23;99279.31;;;0.78;100.00
19884;BME280;10104;50.732;10.174;2024-01-30T00:40:03;99274.41;;;0.73;100.00
19884;BME280;10104;50.732;10.174;2024-01-30T00:42:44;99274.66;;;0.69;100.00
19884;BME280;10104;50.732;10.174;2024-01-30T00:45:24;99278.66;;;0.60;100.00
19884;BME280;10104;50.732;10.174;2024-01-30T00:48:05;99267.56;;;0.57;100.00
19884;BME280;10104;50.732;10.174;2024-01-30T00:50:45;99274.53;;;0.56;100.00
19884;BME280;10104;50.732;10.174;2024-01-30T00:53:26;99275.22;;;0.60;100.00
19884;BME280;10104;50.732;10.174;2024-01-30T00:56:06;99269.25;;;0.58;100.00
19884;BME280;10104;50.732;10.174;2024-01-30T00:58:46;99265.81;;;0.57;100.00
19884;BME280;10104;50.732;10.174;2024-01-30T01:01:26;99264.97;;;0.57;100.00
19884;BME280;10104;50.732;10.174;2024-01-30T01:04:07;99269.63;;;0.66;100.00
19884;BME280;10104;50.732;10.174;2024-01-30T01:06:47;99273.47;;;0.60;100.00
19884;BME280;10104;50.732;10.174;2024-01-30T01:09:28;99268.31;;;0.59;100.00
19884;BME280;10104;50.732;10.174;2024-01-30T01:12:08;99264.97;;;0.57;100.00
19884;BME280;10104;50.732;10.174;2024-01-30T01:14:48;99268.88;;;0.64;100.00
19884;BME280;10104;50.732;10.174;2024-01-30T01:17:28;99253.34;;;0.62;100.00
19884;BME280;10104;50.732;10.174;2024-01-30T01:20:09;99262.00;;;0.63;100.00
19884;BME280;10104;50.732;10.174;2024-01-30T01:22:51;99258.81;;;0.58;100.00
19884;BME280;10104;50.732;10.174;2024-01-30T01:25:32;99254.75;;;0.54;100.00
19884;BME280;10104;50.732;10.174;2024-01-30T01:28:13;99257.63;;;0.49;100.00
19884;BME280;10104;50.732;10.174;2024-01-30T01:30:53;99251.81;;;0.44;100.00
19884;BME280;10104;50.732;10.174;2024-01-30T01:33:39;99247.56;;;0.43;100.00
19884;BME280;10104;50.732;10.174;2024-01-30T01:36:20;99248.75;;;0.37;100.00
19884;BME280;10104;50.732;10.174;2024-01-30T01:39:00;99239.16;;;0.38;100.00
19884;BME280;10104;50.732;10.174;2024-01-30T01:41:41;99238.16;;;0.40;100.00
19884;BME280;10104;50.732;10.174;2024-01-30T01:44:21;99233.72;;;0.43;100.00
19884;BME280;10104;50.732;10.174;2024-01-30T01:47:02;99232.03;;;0.42;100.00
19884;BME280;10104;50.732;10.174;2024-01-30T01:49:42;99228.84;;;0.51;100.00
19884;BME280;10104;50.732;10.174;2024-01-30T01:52:23;99230.72;;;0.49;100.00
19884;BME280;10104;50.732;10.174;2024-01-30T01:55:04;99231.09;;;0.43;100.00
19884;BME280;10104;50.732;10.174;2024-01-30T01:57:45;99232.94;;;0.40;100.00
19884;BME280;10104;50.732;10.174;2024-01-30T02:00:25;99234.44;;;0.45;100.00
19884;BME280;10104;50.732;10.174;2024-01-30T02:03:06;99232.03;;;0.42;100.00
19884;BME280;10104;50.732;10.174;2024-01-30T02:05:50;99232.19;;;0.38;100.00
19884;BME280;10104;50.732;10.174;2024-01-30T02:08:30;99225.59;;;0.47;100.00
19884;BME280;10104;50.732;10.174;2024-01-30T02:11:11;99234.06;;;0.36;100.00
19884;BME280;10104;50.732;10.174;2024-01-30T02:13:52;99229.13;;;0.32;100.00
19884;BME280;10104;50.732;10.174;2024-01-30T02:16:32;99228.19;;;0.33;100.00
19884;BME280;10104;50.732;10.174;2024-01-30T02:19:13;99228.47;;;0.28;100.00
19884;BME280;10104;50.732;10.174;2024-01-30T02:21:54;99225.94;;;0.27;100.00
19884;BME280;10104;50.732;10.174;2024-01-30T02:24:34;99229.31;;;0.29;100.00
19884;BME280;10104;50.732;10.174;2024-01-30T02:27:14;99234.78;;;0.24;100.00
19884;BME280;10104;50.732;10.174;2024-01-30T02:29:55;99232.19;;;0.24;100.00
19884;BME280;10104;50.732;10.174;2024-01-30T02:32:35;99232.75;;;0.29;100.00
19884;BME280;10104;50.732;10.174;2024-01-30T02:35:16;99223.53;;;0.38;100.00
19884;BME280;10104;50.732;10.174;2024-01-30T02:37:57;99231.94;;;0.57;100.00
19884;BME280;10104;50.732;10.174;2024-01-30T02:40:38;99224.19;;;0.56;100.00
19884;BME280;10104;50.732;10.174;2024-01-30T02:43:18;99227.16;;;0.50;100.00
19884;BME280;10104;50.732;10.174;2024-01-30T02:45:59;99231.81;;;0.45;100.00
19884;BME280;10104;50.732;10.174;2024-01-30T02:48:41;99235.38;;;0.29;100.00
19884;BME280;10104;50.732;10.174;2024-01-30T02:51:21;99234.16;;;0.35;100.00
19884;BME280;10104;50.732;10.174;2024-01-30T02:54:01;99232.63;;;0.31;100.00
19884;BME280;10104;50.732;10.174;2024-01-30T02:56:41;99219.94;;;0.40;100.00
19884;BME280;10104;50.732;10.174;2024-01-30T02:59:21;99216.94;;;0.47;100.00
19884;BME280;10104;50.732;10.174;2024-01-30T03:02:02;99207.84;;;0.54;100.00
19884;BME280;10104;50.732;10.174;2024-01-30T03:04:43;99214.44;;;0.45;100.00
19884;BME280;10104;50.732;10.174;2024-01-30T03:07:23;99211.19;;;0.42;100.00
19884;BME280;10104;50.732;10.174;2024-01-30T03:10:04;99213.03;;;0.39;100.00
19884;BME280;10104;50.732;10.174;2024-01-30T03:12:46;99214.63;;;0.42;100.00
19884;BME280;10104;50.732;10.174;2024-01-30T03:15:26;99210.25;;;0.43;100.00
19884;BME280;10104;50.732;10.174;2024-01-30T03:18:07;99199.72;;;0.44;100.00
19884;BME280;10104;50.732;10.174;2024-01-30T03:20:48;99201.50;;;0.44;100.00
19884;BME280;10104;50.732;10.174;2024-01-30T03:23:29;99195.19;;;0.48;100.00
19884;BME280;10104;50.732;10.174;2024-01-30T03:26:09;99187.44;;;0.46;100.00
19884;BME280;10104;50.732;10.174;2024-01-30T03:28:50;99187.53;;;0.45;100.00
19884;BME280;10104;50.732;10.174;2024-01-30T03:31:31;99189.88;;;0.49;100.00
19884;BME280;10104;50.732;10.174;2024-01-30T03:34:11;99185.69;;;0.47;100.00
19884;BME280;10104;50.732;10.174;2024-01-30T03:36:51;99183.09;;;0.47;100.00
19884;BME280;10104;50.732;10.174;2024-01-30T03:39:32;99191.06;;;0.44;100.00
19884;BME280;10104;50.732;10.174;2024-01-30T03:42:12;99187.91;;;0.38;100.00
19884;BME280;10104;50.732;10.174;2024-01-30T03:44:52;99192.66;;;0.46;100.00
19884;BME280;10104;50.732;10.174;2024-01-30T03:47:33;99183.25;;;0.44;100.00
19884;BME280;10104;50.732;10.174;2024-01-30T03:50:14;99184.38;;;0.39;100.00
19884;BME280;10104;50.732;10.174;2024-01-30T03:52:54;99182.78;;;0.51;100.00
19884;BME280;10104;50.732;10.174;2024-01-30T03:55:35;99183.72;;;0.64;100.00
19884;BME280;10104;50.732;10.174;2024-01-30T03:58:15;99181.50;;;0.72;100.00
19884;BME280;10104;50.732;10.174;2024-01-30T04:00:56;99188.38;;;0.73;100.00
19884;BME280;10104;50.732;10.174;2024-01-30T04:03:37;99188.56;;;0.70;100.00
19884;BME280;10104;50.732;10.174;2024-01-30T04:06:17;99188.66;;;0.69;100.00
19884;BME280;10104;50.732;10.174;2024-01-30T04:08:57;99185.66;;;0.75;100.00
19884;BME280;10104;50.732;10.174;2024-01-30T04:11:37;99188.72;;;0.81;100.00
19884;BME280;10104;50.732;10.174;2024-01-30T04:14:17;99181.56;;;0.85;100.00
19884;BME280;10104;50.732;10.174;2024-01-30T04:16:57;99181.41;;;0.74;100.00
19884;BME280;10104;50.732;10.174;2024-01-30T04:19:38;99176.56;;;0.68;100.00
19884;BME280;10104;50.732;10.174;2024-01-30T04:22:19;99181.78;;;0.54;100.00
19884;BME280;10104;50.732;10.174;2024-01-30T04:24:59;99188.84;;;0.52;100.00
19884;BME280;10104;50.732;10.174;2024-01-30T04:27:40;99183.25;;;0.58;100.00
19884;BME280;10104;50.732;10.174;2024-01-30T04:30:20;99188.28;;;0.47;100.00
19884;BME280;10104;50.732;10.174;2024-01-30T04:33:00;99191.66;;;0.49;100.00
19884;BME280;10104;50.732;10.174;2024-01-30T04:35:41;99188.69;;;0.55;100.00
19884;BME280;10104;50.732;10.174;2024-01-30T04:38:21;99185.41;;;0.65;100.00
19884;BME280;10104;50.732;10.174;2024-01-30T04:41:01;99176.91;;;0.62;100.00
19884;BME280;10104;50.732;10.174;2024-01-30T04:43:41;99185.78;;;0.59;100.00
19884;BME280;10104;50.732;10.174;2024-01-30T04:46:21;99184.09;;;0.58;100.00
19884;BME280;10104;50.732;10.174;2024-01-30T04:49:02;99186.06;;;0.55;100.00
19884;BME280;10104;50.732;10.174;2024-01-30T04:51:43;99191.16;;;0.56;100.00
19884;BME280;10104;50.732;10.174;2024-01-30T04:54:24;99188.22;;;0.48;100.00
19884;BME280;10104;50.732;10.174;2024-01-30T04:57:04;99185.22;;;0.40;100.00
19884;BME280;10104;50.732;10.174;2024-01-30T04:59:48;99187.75;;;0.42;100.00
19884;BME280;10104;50.732;10.174;2024-01-30T05:02:28;99188.47;;;0.44;100.00
19884;BME280;10104;50.732;10.174;2024-01-30T05:05:08;99192.75;;;0.45;100.00
19884;BME280;10104;50.732;10.174;2024-01-30T05:07:49;99195.00;;;0.36;100.00
19884;BME280;10104;50.732;10.174;2024-01-30T05:10:29;99194.81;;;0.54;100.00
19884;BME280;10104;50.732;10.174;2024-01-30T05:13:10;99199.47;;;0.49;100.00
19884;BME280;10104;50.732;10.174;2024-01-30T05:15:50;99193.22;;;0.51;100.00
19884;BME280;10104;50.732;10.174;2024-01-30T05:18:31;99184.38;;;0.54;100.00
19884;BME280;10104;50.732;10.174;2024-01-30T05:21:11;99193.22;;;0.51;100.00
19884;BME280;10104;50.732;10.174;2024-01-30T05:23:52;99201.97;;;0.50;100.00
19884;BME280;10104;50.732;10.174;2024-01-30T05:26:32;99198.88;;;0.44;100.00
19884;BME280;10104;50.732;10.174;2024-01-30T05:29:12;99197.31;;;0.41;100.00
19884;BME280;10104;50.732;10.174;2024-01-30T05:31:52;99204.38;;;0.39;100.00
19884;BME280;10104;50.732;10.174;2024-01-30T05:34:32;99199.25;;;0.37;100.00
19884;BME280;10104;50.732;10.174;2024-01-30T05:37:13;99201.59;;;0.42;100.00
19884;BME280;10104;50.732;10.174;2024-01-30T05:39:57;99211.28;;;0.40;100.00
19884;BME280;10104;50.732;10.174;2024-01-30T05:42:38;99204.28;;;0.40;100.00
19884;BME280;10104;50.732;10.174;2024-01-30T05:45:19;99209.06;;;0.48;100.00
19884;BME280;10104;50.732;10.174;2024-01-30T05:48:00;99207.28;;;0.49;100.00
19884;BME280;10104;50.732;10.174;2024-01-30T05:50:40;99208.13;;;0.49;100.00
19884;BME280;10104;50.732;10.174;2024-01-30T05:53:20;99205.13;;;0.41;100.00
19884;BME280;10104;50.732;10.174;2024-01-30T05:56:04;99216.09;;;0.32;100.00
19884;BME280;10104;50.732;10.174;2024-01-30T05:58:44;99214.59;;;0.28;100.00
19884;BME280;10104;50.732;10.174;2024-01-30T06:01:24;99217.50;;;0.23;100.00
19884;BME280;10104;50.732;10.174;2024-01-30T06:04:04;99211.28;;;0.40;100.00
19884;BME280;10104;50.732;10.174;2024-01-30T06:06:45;99220.94;;;0.24;100.00
19884;BME280;10104;50.732;10.174;2024-01-30T06:09:25;99222.41;;;0.28;100.00
19884;BME280;10104;50.732;10.174;2024-01-30T06:12:06;99224.81;;;0.17;100.00
19884;BME280;10104;50.732;10.174;2024-01-30T06:14:46;99214.41;;;0.17;100.00
19884;BME280;10104;50.732;10.174;2024-01-30T06:17:27;99219.63;;;0.17;100.00
19884;BME280;10104;50.732;10.174;2024-01-30T06:20:08;99223.31;;;0.13;100.00
19884;BME280;10104;50.732;10.174;2024-01-30T06:22:48;99222.50;;;0.12;100.00
19884;BME280;10104;50.732;10.174;2024-01-30T06:25:28;99211.88;;;0.15;100.00
19884;BME280;10104;50.732;10.174;2024-01-30T06:28:08;99207.78;;;0.11;100.00
19884;BME280;10104;50.732;10.174;2024-01-30T06:30:49;99214.78;;;0.11;100.00
19884;BME280;10104;50.732;10.174;2024-01-30T06:33:29;99218.69;;;0.18;100.00
19884;BME280;10104;50.732;10.174;2024-01-30T06:36:10;99220.19;;;0.22;100.00
19884;BME280;10104;50.732;10.174;2024-01-30T06:38:50;99210.41;;;0.25;100.00
19884;BME280;10104;50.732;10.174;2024-01-30T06:41:31;99214.03;;;0.23;100.00
19884;BME280;10104;50.732;10.174;2024-01-30T06:44:11;99213.50;;;0.18;100.00
19884;BME280;10104;50.732;10.174;2024-01-30T06:46:51;99220.94;;;0.24;100.00
19884;BME280;10104;50.732;10.174;2024-01-30T06:49:32;99212.44;;;0.20;100.00
19884;BME280;10104;50.732;10.174;2024-01-30T06:52:12;99218.22;;;0.25;100.00
19884;BME280;10104;50.732;10.174;2024-01-30T06:54:52;99222.69;;;0.23;100.00
19884;BME280;10104;50.732;10.174;2024-01-30T06:57:32;99216.16;;;0.16;100.00
19884;BME280;10104;50.732;10.174;2024-01-30T07:00:13;99217.66;;;0.20;100.00
19884;BME280;10104;50.732;10.174;2024-01-30T07:02:54;99224.91;;;0.15;100.00
19884;BME280;10104;50.732;10.174;2024-01-30T07:05:34;99226.88;;;0.12;100.00
19884;BME280;10104;50.732;10.174;2024-01-30T07:08:15;99229.84;;;0.20;100.00
19884;BME280;10104;50.732;10.174;2024-01-30T07:10:57;99232.34;;;0.21;100.00
19884;BME280;10104;50.732;10.174;2024-01-30T07:13:40;99225.09;;;0.26;100.00
19884;BME280;10104;50.732;10.174;2024-01-30T07:16:20;99239.28;;;0.36;100.00
19884;BME280;10104;50.732;10.174;2024-01-30T07:19:00;99232.38;;;0.35;100.00
19884;BME280;10104;50.732;10.174;2024-01-30T07:21:40;99232.75;;;0.29;100.00
19884;BME280;10104;50.732;10.174;2024-01-30T07:24:21;99229.94;;;0.32;100.00
19884;BME280;10104;50.732;10.174;2024-01-30T07:27:01;99233.97;;;0.38;100.00
19884;BME280;10104;50.732;10.174;2024-01-30T07:29:42;99234.53;;;0.43;100.00
19884;BME280;10104;50.732;10.174;2024-01-30T07:32:22;99239.94;;;0.40;100.00
19884;BME280;10104;50.732;10.174;2024-01-30T07:35:02;99231.09;;;0.57;100.00
19884;BME280;10104;50.732;10.174;2024-01-30T07:37:48;99227.56;;;0.58;100.00
19884;BME280;10104;50.732;10.174;2024-01-30T07:40:28;99232.41;;;0.64;100.00
19884;BME280;10104;50.732;10.174;2024-01-30T07:43:08;99229.88;;;0.76;100.00
19884;BME280;10104;50.732;10.174;2024-01-30T07:45:49;99225.88;;;0.71;100.00
19884;BME280;10104;50.732;10.174;2024-01-30T07:48:29;99222.28;;;0.73;100.00
19884;BME280;10104;50.732;10.174;2024-01-30T07:51:10;99225.44;;;0.78;100.00
19884;BME280;10104;50.732;10.174;2024-01-30T07:53:50;99222.78;;;0.93;100.00
19884;BME280;10104;50.732;10.174;2024-01-30T07:56:30;99217.31;;;0.83;100.00
19884;BME280;10104;50.732;10.174;2024-01-30T07:59:11;99226.34;;;0.92;100.00
19884;BME280;10104;50.732;10.174;2024-01-30T08:01:51;99222.22;;;1.02;100.00
19884;BME280;10104;50.732;10.174;2024-01-30T08:04:32;99211.56;;;1.19;100.00
19884;BME280;10104;50.732;10.174;2024-01-30T08:07:12;99216.13;;;1.30;100.00
19884;BME280;10104;50.732;10.174;2024-01-30T08:09:52;99218.09;;;1.53;100.00
19884;BME280;10104;50.732;10.174;2024-01-30T08:12:32;99219.97;;;1.78;100.00
19884;BME280;10104;50.732;10.174;2024-01-30T08:15:13;99217.50;;;2.01;100.00
19884;BME280;10104;50.732;10.174;2024-01-30T08:17:53;99211.38;;;2.15;100.00
19884;BME280;10104;50.732;10.174;2024-01-30T08:20:37;99224.03;;;2.34;100.00
19884;BME280;10104;50.732;10.174;2024-01-30T08:23:17;99212.63;;;2.35;100.00
19884;BME280;10104;50.732;10.174;2024-01-30T08:25:58;99220.06;;;2.54;100.00
19884;BME280;10104;50.732;10.174;2024-01-30T08:28:38;99219.22;;;2.66;100.00
19884;BME280;10104;50.732;10.174;2024-01-30T08:31:19;99213.03;;;2.79;100.00
19884;BME280;10104;50.732;10.174;2024-01-30T08:33:59;99217.13;;;2.83;100.00
19884;BME280;10104;50.732;10.174;2024-01-30T08:36:39;99222.09;;;2.99;100.00
19884;BME280;10104;50.732;10.174;2024-01-30T08:39:20;99223.66;;;3.14;100.00
19884;BME280;10104;50.732;10.174;2024-01-30T08:42:00;99216.50;;;3.16;100.00
19884;BME280;10104;50.732;10.174;2024-01-30T08:44:40;99214.94;;;3.27;100.00
19884;BME280;10104;50.732;10.174;2024-01-30T08:47:20;99214.25;;;3.36;100.00
19884;BME280;10104;50.732;10.174;2024-01-30T08:50:00;99217.19;;;3.44;99.87
19884;BME280;10104;50.732;10.174;2024-01-30T08:52:41;99215.06;;;3.49;99.66
19884;BME280;10104;50.732;10.174;2024-01-30T08:55:21;99207.69;;;3.54;99.78
19884;BME280;10104;50.732;10.174;2024-01-30T08:58:01;99210.69;;;3.60;99.44
19884;BME280;10104;50.732;10.174;2024-01-30T09:00:44;99208.63;;;3.77;98.41
19884;BME280;10104;50.732;10.174;2024-01-30T09:03:24;99206.38;;;3.83;97.00
19884;BME280;10104;50.732;10.174;2024-01-30T09:06:10;99210.97;;;3.92;95.60
19884;BME280;10104;50.732;10.174;2024-01-30T09:08:52;99213.97;;;3.99;94.99
19884;BME280;10104;50.732;10.174;2024-01-30T09:11:32;99207.66;;;4.01;94.48
19884;BME280;10104;50.732;10.174;2024-01-30T09:14:12;99223.66;;;4.21;94.24
19884;BME280;10104;50.732;10.174;2024-01-30T09:16:53;99220.84;;;4.35;93.54
19884;BME280;10104;50.732;10.174;2024-01-30T09:19:33;99214.94;;;4.44;91.96
19884;BME280;10104;50.732;10.174;2024-01-30T09:22:14;99226.00;;;4.47;89.83
19884;BME280;10104;50.732;10.174;2024-01-30T09:24:54;99226.38;;;4.43;91.36
19884;BME280;10104;50.732;10.174;2024-01-30T09:27:34;99223.66;;;4.67;89.72
19884;BME280;10104;50.732;10.174;2024-01-30T09:30:14;99224.84;;;4.74;88.43
19884;BME280;10104;50.732;10.174;2024-01-30T09:32:55;99219.72;;;4.72;88.74
19884;BME280;10104;50.732;10.174;2024-01-30T09:35:36;99232.00;;;4.83;88.64
19884;BME280;10104;50.732;10.174;2024-01-30T09:38:16;99224.97;;;4.72;87.45
19884;BME280;10104;50.732;10.174;2024-01-30T09:41:00;99229.63;;;4.80;87.04
19884;BME280;10104;50.732;10.174;2024-01-30T09:43:47;99229.84;;;4.77;87.23
19884;BME280;10104;50.732;10.174;2024-01-30T09:46:30;99229.50;;;4.93;86.53
19884;BME280;10104;50.732;10.174;2024-01-30T09:49:11;99227.34;;;4.75;86.30
19884;BME280;10104;50.732;10.174;2024-01-30T09:51:52;99226.06;;;4.81;86.02
19884;BME280;10104;50.732;10.174;2024-01-30T09:54:33;99232.47;;;4.88;87.02
19884;BME280;10104;50.732;10.174;2024-01-30T09:57:16;99235.13;;;4.99;84.93
19884;BME280;10104;50.732;10.174;2024-01-30T09:59:56;99230.69;;;5.11;84.70
19884;BME280;10104;50.732;10.174;2024-01-30T10:02:38;99241.13;;;5.44;82.89
19884;BME280;10104;50.732;10.174;2024-01-30T10:05:19;99237.44;;;5.47;83.09
19884;BME280;10104;50.732;10.174;2024-01-30T10:07:59;99240.00;;;5.69;81.27
19884;BME280;10104;50.732;10.174;2024-01-30T10:10:40;99243.81;;;5.76;80.44
19884;BME280;10104;50.732;10.174;2024-01-30T10:13:20;99243.06;;;5.85;79.94
19884;BME280;10104;50.732;10.174;2024-01-30T10:16:00;99247.09;;;5.57;80.72
19884;BME280;10104;50.732;10.174;2024-01-30T10:18:42;99246.00;;;5.60;80.42
19884;BME280;10104;50.732;10.174;2024-01-30T10:21:24;99247.66;;;5.72;80.94
19884;BME280;10104;50.732;10.174;2024-01-30T10:24:05;99247.97;;;5.90;80.09
19884;BME280;10104;50.732;10.174;2024-01-30T10:26:45;99243.84;;;6.08;79.31
19884;BME280;10104;50.732;10.174;2024-01-30T10:29:27;99240.81;;;5.92;79.90
19884;BME280;10104;50.732;10.174;2024-01-30T10:32:07;99250.94;;;5.96;79.87
19884;BME280;10104;50.732;10.174;2024-01-30T10:34:49;99243.97;;;6.06;80.04
19884;BME280;10104;50.732;10.174;2024-01-30T10:37:29;99241.72;;;6.02;80.16
19884;BME280;10104;50.732;10.174;2024-01-30T10:40:13;99247.38;;;6.18;78.66
19884;BME280;10104;50.732;10.174;2024-01-30T10:42:55;99258.84;;;5.96;79.59
19884;BME280;10104;50.732;10.174;2024-01-30T10:45:38;99243.91;;;6.18;79.03
19884;BME280;10104;50.732;10.174;2024-01-30T10:48:26;99246.31;;;6.41;77.03
19884;BME280;10104;50.732;10.174;2024-01-30T10:51:10;99241.38;;;6.48;75.99
19884;BME280;10104;50.732;10.174;2024-01-30T10:53:50;99237.56;;;6.62;78.02
19884;BME280;10104;50.732;10.174;2024-01-30T10:56:32;99233.22;;;6.51;76.03
19884;BME280;10104;50.732;10.174;2024-01-30T10:59:14;99231.78;;;6.68;76.90
19884;BME280;10104;50.732;10.174;2024-01-30T11:01:54;99229.88;;;6.49;76.88
19884;BME280;10104;50.732;10.174;2024-01-30T11:04:41;99235.00;;;6.71;76.57
19884;BME280;10104;50.732;10.174;2024-01-30T11:07:29;99234.75;;;6.54;77.65
19884;BME280;10104;50.732;10.174;2024-01-30T11:10:11;99228.47;;;6.96;76.41
19884;BME280;10104;50.732;10.174;2024-01-30T11:12:55;99216.34;;;7.14;75.16
19884;BME280;10104;50.732;10.174;2024-01-30T11:15:37;99214.44;;;7.26;74.65
19884;BME280;10104;50.732;10.174;2024-01-30T11:18:24;99218.25;;;7.12;74.11
19884;BME280;10104;50.732;10.174;2024-01-30T11:21:05;99214.31;;;7.27;74.19
19884;BME280;10104;50.732;10.174;2024-01-30T11:23:46;99215.75;;;6.71;76.36
19884;BME280;10104;50.732;10.174;2024-01-30T11:26:31;99207.03;;;6.80;75.76
19884;BME280;10104;50.732;10.174;2024-01-30T11:29:13;99197.72;;;7.06;76.16
19884;BME280;10104;50.732;10.174;2024-01-30T11:31:57;99206.72;;;7.04;76.18
19884;BME280;10104;50.732;10.174;2024-01-30T11:34:40;99191.97;;;7.41;74.22
19884;BME280;10104;50.732;10.174;2024-01-30T11:37:25;99188.94;;;7.36;73.81
19884;BME280;10104;50.732;10.174;2024-01-30T11:40:06;99186.34;;;7.46;74.70
19884;BME280;10104;50.732;10.174;2024-01-30T11:42:48;99181.75;;;7.67;73.25
19884;BME280;10104;50.732;10.174;2024-01-30T11:45:29;99176.75;;;7.45;73.69
19884;BME280;10104;50.732;10.174;2024-01-30T11:48:12;99171.22;;;7.57;73.33
19884;BME280;10104;50.732;10.174;2024-01-30T11:50:54;99168.53;;;7.28;73.21
19884;BME280;10104;50.732;10.174;2024-01-30T11:53:34;99161.91;;;7.53;73.77
19884;BME280;10104;50.732;10.174;2024-01-30T11:56:14;99150.25;;;7.37;73.97
19884;BME280;10104;50.732;10.174;2024-01-30T11:58:54;99148.59;;;7.45;74.99
19884;BME280;10104;50.732;10.174;2024-01-30T12:01:36;99149.44;;;7.75;74.49
19884;BME280;10104;50.732;10.174;2024-01-30T12:04:16;99151.53;;;7.81;72.56
19884;BME280;10104;50.732;10.174;2024-01-30T12:06:56;99148.34;;;7.77;72.79
19884;BME280;10104;50.732;10.174;2024-01-30T12:09:38;99152.34;;;7.81;72.38
19884;BME280;10104;50.732;10.174;2024-01-30T12:12:22;99151.50;;;7.90;72.71
19884;BME280;10104;50.732;10.174;2024-01-30T12:15:03;99152.19;;;7.92;72.90
19884;BME280;10104;50.732;10.174;2024-01-30T12:17:43;99149.00;;;7.98;71.62
19884;BME280;10104;50.732;10.174;2024-01-30T12:20:24;99146.22;;;8.00;71.97
19884;BME280;10104;50.732;10.174;2024-01-30T12:23:04;99145.25;;;8.01;71.88
19884;BME280;10104;50.732;10.174;2024-01-30T12:25:45;99141.09;;;8.08;72.00
19884;BME280;10104;50.732;10.174;2024-01-30T12:28:25;99149.84;;;7.99;71.31
19884;BME280;10104;50.732;10.174;2024-01-30T12:31:06;99149.69;;;8.10;71.45
19884;BME280;10104;50.732;10.174;2024-01-30T12:33:49;99149.69;;;8.00;71.65
19884;BME280;10104;50.732;10.174;2024-01-30T12:36:31;99145.25;;;7.91;72.61
19884;BME280;10104;50.732;10.174;2024-01-30T12:39:12;99138.19;;;7.63;72.69
19884;BME280;10104;50.732;10.174;2024-01-30T12:41:54;99141.94;;;7.89;72.96
19884;BME280;10104;50.732;10.174;2024-01-30T12:44:35;99149.97;;;7.97;72.49
19884;BME280;10104;50.732;10.174;2024-01-30T12:47:15;99140.66;;;8.12;71.91
19884;BME280;10104;50.732;10.174;2024-01-30T12:49:58;99139.66;;;8.23;71.04
19884;BME280;10104;50.732;10.174;2024-01-30T12:52:39;99142.88;;;7.98;71.96
19884;BME280;10104;50.732;10.174;2024-01-30T12:55:19;99139.38;;;8.17;71.80
19884;BME280;10104;50.732;10.174;2024-01-30T12:57:59;99144.94;;;8.23;71.62
19884;BME280;10104;50.732;10.174;2024-01-30T13:00:40;99141.91;;;8.08;72.60
19884;BME280;10104;50.732;10.174;2024-01-30T13:03:20;99140.81;;;8.01;72.31
19884;BME280;10104;50.732;10.174;2024-01-30T13:06:01;99143.00;;;8.25;72.46
19884;BME280;10104;50.732;10.174;2024-01-30T13:08:41;99136.94;;;7.96;73.39
19884;BME280;10104;50.732;10.174;2024-01-30T13:11:21;99132.75;;;8.12;73.70
19884;BME280;10104;50.732;10.174;2024-01-30T13:14:01;99134.94;;;8.17;72.89
19884;BME280;10104;50.732;10.174;2024-01-30T13:16:41;99138.31;;;8.00;74.13
19884;BME280;10104;50.732;10.174;2024-01-30T13:19:23;99148.44;;;8.04;73.38
19884;BME280;10104;50.732;10.174;2024-01-30T13:22:03;99138.19;;;7.92;73.88
19884;BME280;10104;50.732;10.174;2024-01-30T13:24:43;99128.88;;;7.97;73.83
19884;BME280;10104;50.732;10.174;2024-01-30T13:27:24;99137.44;;;8.19;72.69
19884;BME280;10104;50.732;10.174;2024-01-30T13:30:04;99130.69;;;8.06;73.79
19884;BME280;10104;50.732;10.174;2024-01-30T13:32:45;99137.34;;;7.91;74.33
19884;BME280;10104;50.732;10.174;2024-01-30T13:35:26;99129.59;;;7.90;75.04
19884;BME280;10104;50.732;10.174;2024-01-30T13:38:06;99129.59;;;7.90;74.32
19884;BME280;10104;50.732;10.174;2024-01-30T13:40:47;99121.78;;;8.07;73.56
19884;BME280;10104;50.732;10.174;2024-01-30T13:43:27;99132.34;;;8.07;74.08
19884;BME280;10104;50.732;10.174;2024-01-30T13:46:08;99133.47;;;7.95;74.73
19884;BME280;10104;50.732;10.174;2024-01-30T13:48:48;99128.34;;;7.94;74.49
19884;BME280;10104;50.732;10.174;2024-01-30T13:51:29;99125.94;;;8.10;74.78
19884;BME280;10104;50.732;10.174;2024-01-30T13:54:09;99120.13;;;8.06;74.42
19884;BME280;10104;50.732;10.174;2024-01-30T13:56:49;99125.97;;;7.81;76.09
19884;BME280;10104;50.732;10.174;2024-01-30T13:59:29;99122.38;;;7.53;77.18
19884;BME280;10104;50.732;10.174;2024-01-30T14:02:09;99118.22;;;7.51;78.69
19884;BME280;10104;50.732;10.174;2024-01-30T14:04:50;99116.28;;;7.53;78.47